Time;durP1;ratioP1;P1;durP2;ratioP2;P2;SDS_P1;SDS_P2;PMS_P1;PMS_P2;Temp;Humidity;BMP_temperature;BMP_pressure;BME280_temperature;BME280_humidity;BME280_pressure;Samples;Min_cycle;Max_cycle;Signal;HPM_P1;HPM_P2
2022/12/31 00:01:04;;;;;;;0.50;0.50;;;10.10;99.90;;;;;;5033569;28;20185;-89
2022/12/31 00:03:32;;;;;;;0.70;0.50;;;10.10;99.90;;;;;;5033773;28;20178;-87
2022/12/31 00:05:58;;;;;;;0.60;0.50;;;10.20;99.90;;;;;;5037732;28;20230;-89
2022/12/31 00:08:24;;;;;;;0.63;0.60;;;10.20;99.90;;;;;;5033812;28;20262;-87
2022/12/31 00:10:50;;;;;;;2.47;0.50;;;10.20;99.90;;;;;;5034924;28;20560;-89
2022/12/31 00:13:17;;;;;;;0.50;0.40;;;10.30;99.90;;;;;;5034358;28;20159;-88
2022/12/31 00:15:43;;;;;;;0.50;0.45;;;10.30;99.90;;;;;;5032401;28;20183;-87
2022/12/31 00:18:10;;;;;;;0.50;0.47;;;10.30;99.90;;;;;;5033369;28;20187;-88
2022/12/31 00:20:42;;;;;;;0.45;0.43;;;10.30;99.90;;;;;;5033502;28;20179;-88
2022/12/31 00:23:09;;;;;;;0.50;0.47;;;10.30;99.90;;;;;;5033137;28;20186;-89
2022/12/31 00:25:36;;;;;;;2.63;0.50;;;10.20;99.90;;;;;;5032838;28;20202;-89
2022/12/31 00:28:03;;;;;;;1.17;0.57;;;10.30;99.90;;;;;;5032886;28;20213;-88
2022/12/31 00:30:29;;;;;;;0.63;0.60;;;10.30;99.90;;;;;;5033066;28;20595;-87
2022/12/31 00:32:56;;;;;;;0.98;0.60;;;10.30;99.90;;;;;;5034099;28;20174;-88
2022/12/31 00:35:22;;;;;;;0.70;0.60;;;10.30;99.90;;;;;;5381113;23;20231;-84
2022/12/31 00:37:51;;;;;;;0.75;0.50;;;10.30;99.90;;;;;;5029771;28;20194;-83
2022/12/31 00:40:16;;;;;;;0.70;0.60;;;10.40;99.90;;;;;;5016117;28;20195;-83
2022/12/31 00:42:42;;;;;;;0.50;0.50;;;10.40;99.90;;;;;;5016124;28;20214;-83
2022/12/31 00:45:08;;;;;;;0.57;0.57;;;10.40;99.90;;;;;;5031147;28;20661;-85
2022/12/31 00:47:33;;;;;;;0.80;0.60;;;10.50;99.90;;;;;;5031119;28;20226;-86
2022/12/31 00:49:59;;;;;;;0.70;0.70;;;10.50;99.90;;;;;;5015774;28;20582;-85
2022/12/31 00:52:25;;;;;;;1.00;0.90;;;10.50;99.90;;;;;;5030952;28;20171;-83
2022/12/31 00:54:50;;;;;;;0.75;0.60;;;10.50;99.90;;;;;;5016071;28;20182;-88
2022/12/31 00:57:16;;;;;;;0.65;0.63;;;10.40;99.90;;;;;;5031069;28;20185;-84
2022/12/31 00:59:42;;;;;;;0.90;0.70;;;10.40;99.90;;;;;;5030599;28;20552;-83
2022/12/31 01:02:07;;;;;;;0.90;0.73;;;10.40;99.90;;;;;;5031182;28;20211;-86
2022/12/31 01:04:33;;;;;;;1.05;0.77;;;10.40;99.90;;;;;;5015305;28;20180;-86
2022/12/31 01:06:59;;;;;;;0.80;0.60;;;10.50;99.90;;;;;;5013951;28;20278;-83
2022/12/31 01:09:24;;;;;;;0.60;0.57;;;10.50;99.90;;;;;;5030722;28;20601;-82
2022/12/31 01:11:50;;;;;;;1.08;0.70;;;10.50;99.90;;;;;;5030321;28;20610;-83
2022/12/31 01:14:19;;;;;;;1.50;0.70;;;10.50;99.90;;;;;;5030113;28;20183;-84
2022/12/31 01:16:50;;;;;;;0.60;0.60;;;10.50;99.90;;;;;;5015023;28;20175;-83
2022/12/31 01:19:19;;;;;;;0.60;0.60;;;10.50;99.90;;;;;;5015134;28;20172;-83
2022/12/31 01:21:45;;;;;;;0.80;0.60;;;10.60;99.90;;;;;;5029982;28;20179;-82
2022/12/31 01:24:12;;;;;;;0.70;0.60;;;10.60;99.90;;;;;;5014997;28;20250;-84
2022/12/31 01:26:38;;;;;;;0.70;0.60;;;10.70;99.90;;;;;;5013788;28;20210;-82
2022/12/31 01:29:05;;;;;;;0.50;0.40;;;10.70;99.90;;;;;;5030321;28;20175;-86
2022/12/31 01:31:33;;;;;;;0.40;0.40;;;10.80;99.90;;;;;;5014824;28;20175;-86
2022/12/31 01:33:59;;;;;;;0.93;0.50;;;10.80;99.90;;;;;;5030028;28;20182;-85
2022/12/31 01:36:27;;;;;;;2.17;0.52;;;10.80;99.90;;;;;;5014347;28;20318;-84
2022/12/31 01:38:55;;;;;;;0.40;0.40;;;10.90;99.90;;;;;;5015275;28;20537;-87
2022/12/31 01:41:30;;;;;;;0.85;0.60;;;10.90;99.90;;;;;;5013687;28;20520;-83
2022/12/31 01:44:09;;;;;;;0.70;0.63;;;11.00;99.90;;;;;;5014750;28;20163;-82
2022/12/31 01:46:48;;;;;;;0.50;0.40;;;10.90;99.90;;;;;;5029773;28;20214;-83
2022/12/31 01:49:27;;;;;;;0.40;0.40;;;11.00;99.90;;;;;;5014875;28;20310;-84
2022/12/31 01:51:59;;;;;;;0.60;0.60;;;11.00;99.90;;;;;;5014320;28;20706;-86
2022/12/31 01:54:28;;;;;;;0.45;0.40;;;11.00;99.90;;;;;;5014614;28;20175;-83
2022/12/31 01:56:55;;;;;;;0.52;0.50;;;11.00;99.90;;;;;;5013388;28;20179;-88
2022/12/31 01:59:23;;;;;;;1.02;0.60;;;11.00;99.90;;;;;;5014758;28;20168;-86
2022/12/31 02:01:52;;;;;;;0.60;0.50;;;11.00;99.90;;;;;;5014605;28;20258;-89
2022/12/31 02:04:20;;;;;;;0.90;0.77;;;11.00;99.90;;;;;;5014497;28;20637;-83
2022/12/31 02:07:06;;;;;;;1.05;0.75;;;11.00;99.90;;;;;;5014076;28;20302;-83
2022/12/31 02:09:35;;;;;;;1.55;0.80;;;11.00;99.90;;;;;;5029686;28;20190;-82
2022/12/31 02:12:01;;;;;;;0.90;0.60;;;11.00;99.90;;;;;;5014400;28;20175;-83
2022/12/31 02:14:30;;;;;;;0.77;0.60;;;10.90;99.90;;;;;;5014293;28;20681;-83
2022/12/31 02:17:08;;;;;;;1.00;0.82;;;11.00;99.90;;;;;;5014338;28;20202;-81
2022/12/31 02:20:05;;;;;;;1.65;0.60;;;11.10;99.90;;;;;;5029599;28;20175;-86
2022/12/31 02:23:09;;;;;;;0.70;0.70;;;11.10;99.90;;;;;;5029681;28;20503;-83
2022/12/31 02:25:49;;;;;;;0.60;0.60;;;11.20;99.90;;;;;;5012155;28;20214;-83
2022/12/31 02:28:23;;;;;;;0.68;0.50;;;11.10;99.90;;;;;;5014421;28;20186;-82
2022/12/31 02:30:54;;;;;;;0.93;0.63;;;11.10;99.90;;;;;;5014767;28;20171;-86
2022/12/31 02:33:37;;;;;;;1.02;0.57;;;11.20;99.90;;;;;;5014322;28;20593;-84
2022/12/31 02:36:10;;;;;;;0.65;0.60;;;11.20;99.90;;;;;;5013832;28;20234;-83
2022/12/31 02:38:41;;;;;;;0.82;0.70;;;11.20;99.90;;;;;;5015758;28;20524;-82
2022/12/31 02:41:48;;;;;;;0.60;0.60;;;11.20;99.90;;;;;;5018453;28;20194;-82
2022/12/31 02:43:58;;;;;;;1.48;0.93;;;11.30;99.90;;;;;;5017913;28;20231;-85
2022/12/31 02:46:42;;;;;;;0.75;0.65;;;11.20;99.90;;;;;;5017934;28;20668;-86
2022/12/31 02:49:21;;;;;;;0.60;0.60;;;11.30;99.90;;;;;;5018169;28;20179;-89
2022/12/31 02:52:15;;;;;;;0.68;0.60;;;11.30;99.90;;;;;;5017842;28;20163;-81
2022/12/31 02:55:08;;;;;;;0.63;0.60;;;11.30;99.90;;;;;;5018130;28;20175;-82
2022/12/31 02:57:45;;;;;;;2.28;0.95;;;11.30;99.90;;;;;;5017950;28;20217;-88
2022/12/31 03:03:00;;;;;;;2.78;0.98;;;11.40;99.90;;;;;;5017872;28;20616;-83
2022/12/31 03:05:29;;;;;;;1.80;1.10;;;11.40;99.90;;;;;;5017600;28;20625;-83
2022/12/31 03:07:55;;;;;;;2.58;1.20;;;11.40;99.90;;;;;;5017853;28;20242;-83
2022/12/31 03:10:21;;;;;;;3.38;0.93;;;11.50;99.90;;;;;;5018093;28;20168;-89
2022/12/31 03:12:47;;;;;;;2.08;1.20;;;11.50;99.90;;;;;;5016937;28;20179;-90
2022/12/31 03:15:19;;;;;;;3.60;1.00;;;11.50;99.90;;;;;;5017914;28;20233;-89
2022/12/31 03:18:06;;;;;;;1.50;1.10;;;11.60;99.90;;;;;;5018066;28;20156;-89
2022/12/31 03:23:38;;;;;;;5.97;1.30;;;11.60;99.90;;;;;;5018141;28;20221;-87
2022/12/31 03:26:09;;;;;;;3.55;1.00;;;11.60;99.90;;;;;;5017886;28;20642;-91
2022/12/31 03:28:35;;;;;;;1.85;1.00;;;11.50;99.90;;;;;;5016659;28;20175;-90
2022/12/31 03:31:02;;;;;;;1.83;1.10;;;11.50;99.90;;;;;;5017806;28;20171;-91
2022/12/31 03:33:38;;;;;;;2.42;1.17;;;11.60;99.90;;;;;;5017745;28;20178;-90
2022/12/31 03:36:07;;;;;;;3.13;1.20;;;11.60;99.90;;;;;;5015900;28;20253;-91
2022/12/31 03:38:39;;;;;;;1.85;0.95;;;11.60;99.90;;;;;;5017869;28;20203;-92
2022/12/31 03:41:05;;;;;;;1.90;1.23;;;11.60;99.90;;;;;;5017729;28;20187;-91
2022/12/31 03:43:31;;;;;;;2.42;1.13;;;11.60;99.90;;;;;;5032855;28;20210;-89
2022/12/31 03:46:00;;;;;;;1.67;1.10;;;11.60;99.90;;;;;;5017432;28;20210;-85
2022/12/31 03:48:29;;;;;;;1.80;1.10;;;11.70;99.90;;;;;;5032690;28;20262;-92
2022/12/31 03:50:54;;;;;;;2.33;1.10;;;11.70;99.90;;;;;;5031970;28;20180;-93
2022/12/31 03:53:20;;;;;;;6.72;1.25;;;11.70;99.90;;;;;;5032844;28;20224;-94
2022/12/31 03:55:51;;;;;;;3.75;1.10;;;11.70;99.90;;;;;;5033022;28;20175;-84
2022/12/31 03:58:16;;;;;;;1.63;1.00;;;11.70;99.90;;;;;;5018271;28;20199;-86
2022/12/31 04:00:42;;;;;;;2.78;1.10;;;11.70;99.90;;;;;;5033403;28;20647;-91
2022/12/31 04:03:08;;;;;;;2.22;0.70;;;11.70;99.90;;;;;;5033308;28;20516;-92
2022/12/31 04:05:33;;;;;;;1.35;0.95;;;11.70;99.90;;;;;;5032797;28;20211;-88
2022/12/31 04:08:03;;;;;;;1.33;0.88;;;11.80;99.90;;;;;;5016529;28;20321;-90
2022/12/31 04:10:29;;;;;;;0.80;0.68;;;11.80;99.90;;;;;;5016759;28;20176;-92
2022/12/31 04:12:55;;;;;;;0.95;0.70;;;11.80;99.90;;;;;;5016574;28;20179;-94
2022/12/31 04:15:20;;;;;;;0.65;0.63;;;11.70;99.90;;;;;;5018228;28;20194;-93
2022/12/31 04:17:48;;;;;;;1.25;0.63;;;11.70;99.90;;;;;;5016724;28;20183;-94
2022/12/31 04:20:14;;;;;;;0.40;0.40;;;11.60;99.90;;;;;;5018042;28;20593;-95
2022/12/31 04:22:41;;;;;;;1.05;0.50;;;11.60;99.90;;;;;;5019267;28;20206;-96
2022/12/31 04:25:11;;;;;;;0.80;0.52;;;11.60;99.90;;;;;;5022167;28;20265;-96
2022/12/31 04:27:40;;;;;;;2.13;0.40;;;11.60;99.90;;;;;;5023439;28;20259;-95
2022/12/31 04:30:06;;;;;;;0.80;0.40;;;11.60;99.90;;;;;;5023067;28;20226;-96
2022/12/31 04:32:32;;;;;;;0.70;0.55;;;11.60;99.90;;;;;;5020381;28;20182;-96
2022/12/31 04:34:58;;;;;;;1.60;0.63;;;11.60;99.90;;;;;;5025484;28;20219;-95
2022/12/31 04:37:23;;;;;;;2.67;0.93;;;11.70;99.90;;;;;;5023430;28;20175;-95
2022/12/31 04:39:49;;;;;;;1.02;0.70;;;11.70;99.90;;;;;;5026340;28;20179;-96
2022/12/31 04:42:15;;;;;;;2.50;0.85;;;11.70;99.90;;;;;;5024560;28;20179;-94
2022/12/31 04:44:40;;;;;;;2.35;0.75;;;11.70;99.90;;;;;;5026547;28;20239;-94
2022/12/31 04:47:06;;;;;;;2.08;0.80;;;11.80;99.90;;;;;;5023002;28;20179;-93
2022/12/31 04:49:34;;;;;;;0.50;0.40;;;11.80;99.90;;;;;;5021635;28;20177;-95
2022/12/31 04:51:59;;;;;;;0.63;0.40;;;11.90;99.90;;;;;;5019172;28;20314;-96
2022/12/31 04:54:25;;;;;;;0.30;0.30;;;11.90;99.90;;;;;;5020968;28;20167;-96
2022/12/31 04:56:51;;;;;;;0.45;0.32;;;12.00;99.90;;;;;;5020188;28;20251;-96
2022/12/31 04:59:17;;;;;;;0.65;0.30;;;11.90;99.90;;;;;;5018523;28;20175;-96
2022/12/31 05:01:43;;;;;;;1.08;0.30;;;12.00;99.90;;;;;;5019595;28;20214;-95
2022/12/31 05:04:09;;;;;;;0.95;0.40;;;12.00;99.90;;;;;;5022178;28;20179;-95
2022/12/31 05:06:34;;;;;;;0.20;0.20;;;12.10;99.90;;;;;;5020627;28;20246;-96
2022/12/31 05:09:15;;;;;;;0.35;0.35;;;12.20;99.90;;;;;;5037906;28;20186;-95
2022/12/31 05:11:41;;;;;;;0.60;0.40;;;12.20;99.90;;;;;;5037746;28;20266;-96
2022/12/31 05:14:07;;;;;;;0.93;0.65;;;12.30;99.90;;;;;;5038818;28;20221;-96
2022/12/31 05:16:33;;;;;;;2.05;0.40;;;12.40;99.90;;;;;;5023206;28;20167;-96
2022/12/31 05:19:05;;;;;;;0.50;0.38;;;12.50;99.90;;;;;;5021238;28;20206;-96
2022/12/31 05:21:31;;;;;;;0.30;0.30;;;12.50;99.90;;;;;;5022513;28;20191;-96
2022/12/31 05:23:56;;;;;;;0.40;0.30;;;12.50;99.90;;;;;;5024738;28;20167;-91
2022/12/31 05:26:22;;;;;;;1.52;0.45;;;12.50;99.90;;;;;;5038503;28;20301;-95
2022/12/31 05:29:04;;;;;;;0.38;0.30;;;12.50;99.90;;;;;;5039506;28;20567;-93
2022/12/31 05:31:30;;;;;;;1.92;0.47;;;12.60;99.90;;;;;;5035636;28;20210;-91
2022/12/31 05:33:55;;;;;;;4.78;0.30;;;12.70;99.90;;;;;;5035738;28;20179;-96
2022/12/31 05:36:21;;;;;;;0.45;0.30;;;12.80;99.90;;;;;;5020356;28;20231;-87
2022/12/31 05:38:47;;;;;;;2.25;0.30;;;12.70;99.90;;;;;;5030758;28;20179;-86
2022/12/31 05:41:12;;;;;;;0.68;0.30;;;12.70;99.90;;;;;;5015023;28;20212;-84
2022/12/31 05:43:38;;;;;;;1.88;0.30;;;12.70;99.90;;;;;;5014817;28;20183;-83
2022/12/31 05:46:04;;;;;;;0.35;0.30;;;12.70;99.90;;;;;;5015125;28;20222;-92
2022/12/31 05:48:31;;;;;;;2.80;0.30;;;12.70;99.90;;;;;;5030246;28;20187;-88
2022/12/31 05:50:57;;;;;;;0.20;0.20;;;12.80;99.90;;;;;;5030540;28;20199;-87
2022/12/31 05:53:23;;;;;;;1.73;0.30;;;12.80;99.90;;;;;;5031019;28;20187;-95
2022/12/31 05:55:49;;;;;;;0.30;0.30;;;12.90;99.90;;;;;;5030933;28;20179;-95
2022/12/31 05:58:16;;;;;;;0.50;0.32;;;12.90;99.90;;;;;;5030924;28;20483;-94
2022/12/31 06:00:42;;;;;;;0.40;0.40;;;12.70;99.90;;;;;;5031704;28;20240;-95
2022/12/31 06:03:08;;;;;;;0.55;0.55;;;12.70;99.90;;;;;;5031379;28;20186;-94
2022/12/31 06:05:33;;;;;;;0.88;0.70;;;12.50;99.90;;;;;;5014974;28;20218;-95
2022/12/31 06:07:59;;;;;;;1.13;0.70;;;12.50;99.90;;;;;;5015369;28;20748;-94
2022/12/31 06:10:25;;;;;;;1.33;1.02;;;12.40;99.90;;;;;;5015355;28;20175;-94
2022/12/31 06:12:51;;;;;;;1.35;0.70;;;12.30;99.90;;;;;;5014834;28;20233;-94
2022/12/31 06:15:16;;;;;;;0.60;0.52;;;12.20;99.90;;;;;;5015182;28;20270;-94
2022/12/31 06:17:42;;;;;;;1.75;0.50;;;12.10;99.90;;;;;;5014077;28;20265;-94
2022/12/31 06:20:08;;;;;;;0.68;0.50;;;12.00;99.90;;;;;;5013665;28;20179;-93
2022/12/31 06:22:34;;;;;;;0.50;0.50;;;11.90;99.90;;;;;;5013460;28;20182;-93
2022/12/31 06:25:00;;;;;;;0.85;0.40;;;11.90;99.90;;;;;;5014333;28;20195;-92
2022/12/31 06:27:25;;;;;;;0.60;0.50;;;11.90;99.90;;;;;;5014189;28;20206;-92
2022/12/31 06:30:04;;;;;;;2.15;0.50;;;11.90;99.90;;;;;;5014293;28;20175;-92
2022/12/31 06:32:29;;;;;;;0.70;0.50;;;11.90;99.90;;;;;;5015237;28;20175;-94
2022/12/31 06:34:55;;;;;;;0.50;0.50;;;11.80;99.90;;;;;;5013888;28;20234;-92
2022/12/31 06:37:21;;;;;;;0.50;0.50;;;11.80;99.90;;;;;;5014359;28;20175;-93
2022/12/31 06:39:54;;;;;;;0.63;0.55;;;11.80;99.90;;;;;;5014259;28;20182;-93
2022/12/31 06:42:20;;;;;;;1.63;0.60;;;11.80;99.90;;;;;;5014345;28;20267;-94
2022/12/31 06:44:46;;;;;;;0.50;0.50;;;11.70;99.90;;;;;;5014350;28;20225;-92
2022/12/31 06:47:11;;;;;;;0.50;0.50;;;11.70;99.90;;;;;;5014150;28;20179;-92
2022/12/31 06:49:39;;;;;;;0.50;0.50;;;11.80;99.90;;;;;;5014103;28;20203;-92
2022/12/31 06:52:05;;;;;;;0.82;0.52;;;11.70;99.90;;;;;;5014214;28;20263;-92
2022/12/31 06:54:31;;;;;;;1.25;0.50;;;11.70;99.90;;;;;;5015414;28;20939;-91
2022/12/31 06:56:57;;;;;;;0.70;0.60;;;11.70;99.90;;;;;;5014061;28;20218;-91
2022/12/31 06:59:26;;;;;;;1.13;0.73;;;11.70;99.90;;;;;;5014003;28;20548;-92
2022/12/31 07:02:10;;;;;;;1.08;0.70;;;11.60;99.90;;;;;;5014040;28;20176;-92
2022/12/31 07:04:54;;;;;;;0.73;0.73;;;11.60;99.90;;;;;;5015190;28;20606;-92
2022/12/31 07:07:32;;;;;;;0.60;0.50;;;11.60;99.90;;;;;;5014742;28;20221;-92
2022/12/31 07:10:22;;;;;;;0.60;0.60;;;11.60;99.90;;;;;;5014944;28;20164;-92
2022/12/31 07:13:30;;;;;;;2.22;0.90;;;11.50;99.90;;;;;;5030355;28;20194;-92
2022/12/31 07:16:18;;;;;;;1.55;0.70;;;11.50;99.90;;;;;;5030291;28;20180;-94
2022/12/31 07:19:14;;;;;;;0.68;0.60;;;11.60;99.90;;;;;;5030163;28;20186;-93
2022/12/31 07:21:41;;;;;;;0.40;0.40;;;11.50;99.90;;;;;;5013241;28;20195;-92
2022/12/31 07:24:08;;;;;;;0.52;0.40;;;11.50;99.90;;;;;;5030844;28;20210;-92
2022/12/31 07:27:01;;;;;;;1.10;0.45;;;11.50;99.90;;;;;;5033746;28;20221;-92
2022/12/31 07:29:50;;;;;;;0.70;0.60;;;11.50;99.90;;;;;;5033882;28;20178;-90
2022/12/31 07:32:49;;;;;;;1.80;0.30;;;11.50;99.90;;;;;;5033819;28;20218;-93
2022/12/31 07:35:31;;;;;;;0.60;0.45;;;11.40;99.90;;;;;;5033455;28;20235;-91
2022/12/31 07:38:05;;;;;;;0.63;0.40;;;11.40;99.90;;;;;;5033436;28;20179;-93
2022/12/31 07:41:02;;;;;;;0.50;0.32;;;11.40;99.90;;;;;;5018322;28;20214;-93
2022/12/31 07:43:34;;;;;;;0.43;0.30;;;11.40;99.90;;;;;;5033587;28;20175;-91
2022/12/31 07:46:27;;;;;;;0.30;0.30;;;11.40;99.90;;;;;;5017780;28;20218;-94
2022/12/31 07:48:54;;;;;;;1.65;0.40;;;11.40;99.90;;;;;;5018096;28;20162;-89
2022/12/31 07:51:20;;;;;;;1.35;1.00;;;11.40;99.90;;;;;;5016595;28;20187;-92
2022/12/31 07:53:46;;;;;;;1.13;0.90;;;11.40;99.90;;;;;;5016563;28;20171;-92
2022/12/31 07:56:12;;;;;;;0.90;0.70;;;11.40;99.90;;;;;;5016551;28;20183;-92
2022/12/31 07:59:20;;;;;;;1.17;0.90;;;11.40;99.90;;;;;;5016799;28;20172;-91
2022/12/31 08:02:12;;;;;;;1.08;0.60;;;11.40;99.90;;;;;;5016847;28;20179;-91
2022/12/31 08:05:05;;;;;;;0.60;0.50;;;11.40;99.90;;;;;;5032886;28;20263;-91
2022/12/31 08:07:53;;;;;;;0.40;0.40;;;11.40;99.90;;;;;;5016153;28;20233;-93
2022/12/31 08:10:47;;;;;;;0.85;0.70;;;11.30;99.90;;;;;;5032889;28;20184;-95
2022/12/31 08:13:13;;;;;;;1.25;0.90;;;11.40;99.90;;;;;;5016034;28;20600;-92
2022/12/31 08:15:40;;;;;;;1.20;0.93;;;11.40;99.90;;;;;;5016483;28;20207;-92
2022/12/31 08:18:07;;;;;;;1.50;1.30;;;11.30;99.90;;;;;;5016438;28;20210;-92
2022/12/31 08:20:45;;;;;;;0.98;0.80;;;11.30;99.90;;;;;;5016069;28;20258;-92
2022/12/31 08:23:44;;;;;;;1.98;1.60;;;11.30;99.90;;;;;;5016024;28;20194;-92
2022/12/31 08:26:43;;;;;;;1.52;1.20;;;11.40;99.90;;;;;;5032567;28;20210;-93
2022/12/31 08:29:29;;;;;;;2.35;1.17;;;11.30;99.90;;;;;;5017192;28;20170;-94
2022/12/31 08:32:27;;;;;;;1.42;1.10;;;11.30;99.90;;;;;;5032559;28;20515;-92
2022/12/31 08:35:14;;;;;;;1.17;0.90;;;11.30;99.90;;;;;;5015293;28;20234;-94
2022/12/31 08:37:52;;;;;;;1.70;1.13;;;11.30;99.90;;;;;;5032585;28;20614;-93
2022/12/31 08:40:18;;;;;;;1.58;1.25;;;11.30;99.90;;;;;;5032371;28;20198;-91
2022/12/31 08:42:51;;;;;;;3.83;2.47;;;11.40;99.90;;;;;;5032347;28;20602;-94
2022/12/31 08:45:29;;;;;;;3.38;2.40;;;11.30;99.90;;;;;;5015605;28;20250;-92
2022/12/31 08:48:03;;;;;;;3.13;2.28;;;11.40;99.90;;;;;;5015610;28;20171;-92
2022/12/31 08:50:30;;;;;;;2.50;1.80;;;11.40;99.90;;;;;;5015569;28;20178;-93
2022/12/31 08:52:56;;;;;;;2.53;1.80;;;11.50;99.90;;;;;;5015166;28;20182;-91
2022/12/31 08:55:22;;;;;;;2.10;1.50;;;11.50;99.90;;;;;;5015629;28;20175;-92
2022/12/31 08:57:52;;;;;;;2.00;1.70;;;11.50;99.90;;;;;;5016507;28;20206;-91
2022/12/31 09:00:21;;;;;;;2.88;1.70;;;11.50;99.90;;;;;;5015919;28;20539;-91
2022/12/31 09:03:09;;;;;;;1.00;0.80;;;11.60;99.90;;;;;;5016836;28;20175;-93
2022/12/31 09:06:02;;;;;;;1.63;0.70;;;11.70;99.90;;;;;;5015082;28;20265;-90
2022/12/31 09:08:40;;;;;;;1.35;0.60;;;11.80;99.90;;;;;;5015019;28;20244;-91
2022/12/31 09:11:15;;;;;;;1.23;0.77;;;11.80;99.90;;;;;;5031837;28;20220;-91
2022/12/31 09:13:52;;;;;;;0.80;0.63;;;11.80;99.90;;;;;;5031825;28;20197;-93
2022/12/31 09:16:36;;;;;;;0.52;0.50;;;11.80;99.90;;;;;;5016368;28;20170;-91
2022/12/31 09:19:02;;;;;;;1.00;0.70;;;11.90;99.90;;;;;;5015009;28;20183;-92
2022/12/31 09:21:31;;;;;;;0.75;0.60;;;11.90;99.90;;;;;;5031367;28;20236;-92
2022/12/31 09:23:57;;;;;;;0.55;0.55;;;11.90;99.90;;;;;;5031170;28;20178;-92
2022/12/31 09:26:50;;;;;;;0.50;0.50;;;12.00;99.90;;;;;;5016093;28;20269;-93
2022/12/31 09:29:48;;;;;;;4.53;0.50;;;12.10;99.90;;;;;;5031704;28;20206;-92
2022/12/31 09:32:28;;;;;;;0.65;0.60;;;12.20;99.90;;;;;;5014533;28;20194;-95
2022/12/31 09:35:02;;;;;;;0.70;0.50;;;12.20;99.90;;;;;;5031601;28;20223;-94
2022/12/31 09:38:13;;;;;;;1.00;0.57;;;12.30;99.90;;;;;;5014883;28;20178;-95
2022/12/31 09:40:57;;;;;;;0.47;0.47;;;12.30;99.90;;;;;;5031540;28;20190;-96
2022/12/31 09:43:44;;;;;;;1.25;0.60;;;12.30;99.90;;;;;;5015810;28;20225;-94
2022/12/31 09:46:35;;;;;;;0.77;0.77;;;12.30;99.90;;;;;;5031043;28;20223;-94
2022/12/31 09:49:28;;;;;;;1.45;0.95;;;12.30;99.90;;;;;;5030902;28;20175;-94
2022/12/31 09:52:17;;;;;;;2.08;0.90;;;12.20;99.90;;;;;;5031041;28;20176;-93
2022/12/31 09:55:08;;;;;;;1.70;0.90;;;12.20;99.90;;;;;;5031295;28;20263;-93
2022/12/31 09:58:00;;;;;;;2.35;0.90;;;12.10;99.90;;;;;;5030911;28;20175;-93
2022/12/31 10:00:42;;;;;;;1.27;0.85;;;12.20;99.90;;;;;;5014600;28;20175;-94
2022/12/31 10:03:26;;;;;;;0.85;0.70;;;12.20;99.90;;;;;;5014357;28;20175;-95
2022/12/31 10:06:07;;;;;;;1.00;0.60;;;12.30;99.90;;;;;;5030940;28;20218;-95
2022/12/31 10:08:53;;;;;;;2.10;0.60;;;12.40;99.90;;;;;;5014423;28;20237;-94
2022/12/31 10:11:53;;;;;;;1.05;0.50;;;12.40;99.90;;;;;;5015840;28;20239;-94
2022/12/31 10:14:50;;;;;;;2.17;0.60;;;12.50;99.90;;;;;;5015641;28;20163;-95
2022/12/31 10:17:35;;;;;;;1.48;0.65;;;12.60;99.90;;;;;;5014287;28;20226;-93
2022/12/31 10:20:30;;;;;;;0.52;0.52;;;12.60;99.90;;;;;;5030913;28;20187;-92
2022/12/31 10:23:21;;;;;;;2.40;0.70;;;12.60;99.90;;;;;;5015272;28;20180;-94
2022/12/31 10:26:12;;;;;;;1.15;0.60;;;12.60;99.90;;;;;;5015610;28;20205;-94
2022/12/31 10:28:57;;;;;;;2.42;0.50;;;12.70;99.90;;;;;;5013598;28;20186;-94
2022/12/31 10:32:07;;;;;;;1.45;0.77;;;12.80;99.90;;;;;;5013615;28;20175;-93
2022/12/31 10:34:42;;;;;;;2.42;0.70;;;12.80;99.90;;;;;;5014725;28;20171;-89
2022/12/31 10:37:13;;;;;;;0.77;0.65;;;12.90;99.90;;;;;;5030325;28;20201;-92
2022/12/31 10:40:04;;;;;;;2.05;0.73;;;13.00;99.90;;;;;;5014073;28;20172;-89
2022/12/31 10:43:04;;;;;;;2.17;0.85;;;13.10;99.90;;;;;;5021614;28;20241;-91
2022/12/31 10:45:42;;;;;;;1.38;0.80;;;13.20;99.90;;;;;;5015108;28;20265;-93
2022/12/31 10:48:33;;;;;;;4.50;0.88;;;13.30;99.90;;;;;;5014979;28;20151;-89
2022/12/31 10:51:19;;;;;;;1.05;0.55;;;13.40;99.90;;;;;;5013979;28;20167;-93
2022/12/31 10:54:22;;;;;;;2.85;0.70;;;13.40;99.90;;;;;;5030124;28;20210;-93
2022/12/31 10:57:25;;;;;;;1.10;0.57;;;13.40;99.90;;;;;;5030231;28;20179;-94
2022/12/31 10:59:53;;;;;;;1.48;0.95;;;13.40;99.90;;;;;;5033251;28;20182;-92
2022/12/31 11:02:46;;;;;;;3.35;0.90;;;13.50;99.90;;;;;;5018789;28;20195;-92
2022/12/31 11:05:49;;;;;;;2.08;0.70;;;13.50;99.90;;;;;;5034097;28;20187;-93
2022/12/31 11:08:14;;;;;;;4.60;0.80;;;13.60;99.90;;;;;;5018309;28;20812;-88
2022/12/31 11:11:24;;;;;;;1.98;0.68;;;13.60;99.90;;;;;;5018537;28;20182;-89
2022/12/31 11:14:30;;;;;;;6.35;0.65;;;13.70;99.90;;;;;;5018750;28;20167;-92
2022/12/31 11:17:04;;;;;;;2.67;0.60;;;13.70;99.90;;;;;;5014200;28;20187;-92
2022/12/31 11:19:36;;;;;;;0.95;0.60;;;13.80;99.90;;;;;;5014133;28;20206;-92
2022/12/31 11:22:26;;;;;;;0.88;0.50;;;13.90;99.90;;;;;;4998694;28;20604;-90
2022/12/31 11:25:13;;;;;;;2.47;0.65;;;13.90;99.90;;;;;;4997545;28;20176;-92
2022/12/31 11:28:00;;;;;;;4.28;0.60;;;13.90;99.90;;;;;;4998647;28;20180;-94
2022/12/31 11:30:54;;;;;;;2.70;0.52;;;14.00;99.90;;;;;;5014209;28;20174;-92
2022/12/31 11:33:46;;;;;;;3.72;0.70;;;14.10;99.90;;;;;;4998709;28;20190;-92
2022/12/31 11:36:49;;;;;;;0.40;0.40;;;14.10;99.90;;;;;;5011541;28;20277;-88
2022/12/31 11:39:47;;;;;;;1.60;0.50;;;14.10;99.90;;;;;;5017142;28;20645;-86
2022/12/31 11:42:50;;;;;;;0.70;0.50;;;14.20;99.90;;;;;;5016341;28;20183;-84
2022/12/31 11:45:35;;;;;;;1.65;0.50;;;14.60;99.90;;;;;;5015975;28;20206;-86
2022/12/31 11:48:42;;;;;;;0.40;0.40;;;14.60;99.90;;;;;;5032594;28;20629;-85
2022/12/31 11:51:45;;;;;;;1.75;0.43;;;14.80;99.90;;;;;;5017627;28;20171;-92
2022/12/31 11:54:29;;;;;;;1.58;0.40;;;15.10;99.90;;;;;;5016129;28;20182;-85
2022/12/31 11:57:23;;;;;;;2.42;0.50;;;15.20;99.90;;;;;;5017197;28;20217;-87
2022/12/31 12:00:11;;;;;;;5.82;0.68;;;15.30;99.90;;;;;;5017221;28;20187;-85
2022/12/31 12:02:44;;;;;;;2.70;0.50;;;15.30;99.90;;;;;;5015892;28;20233;-86
2022/12/31 12:05:14;;;;;;;4.03;0.50;;;15.30;99.90;;;;;;5016933;28;20191;-82
2022/12/31 12:07:40;;;;;;;0.85;0.45;;;15.30;99.90;;;;;;5017085;28;20269;-86
2022/12/31 12:10:18;;;;;;;0.55;0.32;;;15.40;99.90;;;;;;5015042;28;20195;-84
2022/12/31 12:12:44;;;;;;;1.77;0.70;;;15.40;99.90;;;;;;5032078;28;20183;-90
2022/12/31 12:15:18;;;;;;;1.17;0.50;;;15.40;99.90;;;;;;5015810;28;20237;-90
2022/12/31 12:17:51;;;;;;;0.82;0.50;;;15.20;99.90;;;;;;5015559;28;20187;-89
2022/12/31 12:20:21;;;;;;;1.58;0.60;;;14.90;99.90;;;;;;5015854;28;20179;-89
2022/12/31 12:22:52;;;;;;;1.10;0.45;;;15.00;99.90;;;;;;5016569;28;20187;-86
2022/12/31 12:25:24;;;;;;;2.05;0.50;;;14.90;99.90;;;;;;5015044;28;20203;-87
2022/12/31 12:27:50;;;;;;;2.55;0.60;;;14.80;99.90;;;;;;5016509;28;20179;-88
2022/12/31 12:30:23;;;;;;;1.15;0.50;;;14.80;99.90;;;;;;5016545;28;20180;-87
2022/12/31 12:32:59;;;;;;;1.65;0.60;;;14.70;99.90;;;;;;5014776;28;20179;-87
2022/12/31 12:35:33;;;;;;;2.03;0.47;;;14.70;99.90;;;;;;5014407;28;20288;-88
2022/12/31 12:38:02;;;;;;;0.98;0.40;;;14.60;99.90;;;;;;5014505;28;20167;-87
2022/12/31 12:40:29;;;;;;;5.68;0.82;;;14.70;99.90;;;;;;5016081;28;20176;-86
2022/12/31 12:42:55;;;;;;;2.33;0.73;;;14.60;99.90;;;;;;5014612;28;20172;-86
2022/12/31 12:45:24;;;;;;;1.92;0.80;;;14.50;99.90;;;;;;5014562;28;20254;-87
2022/12/31 12:47:56;;;;;;;1.23;0.50;;;14.50;99.90;;;;;;5012895;28;20529;-86
2022/12/31 12:50:25;;;;;;;2.72;0.68;;;14.50;99.90;;;;;;5012254;28;20618;-86
2022/12/31 12:53:09;;;;;;;2.72;0.80;;;14.50;99.90;;;;;;5014177;28;20568;-86
2022/12/31 12:56:05;;;;;;;2.33;0.55;;;14.50;99.90;;;;;;5015826;28;20669;-85
2022/12/31 12:59:06;;;;;;;1.27;0.45;;;14.60;99.90;;;;;;5014323;28;20704;-86
2022/12/31 13:01:59;;;;;;;1.25;0.60;;;14.60;99.90;;;;;;5015495;28;20232;-85
2022/12/31 13:04:49;;;;;;;2.13;0.50;;;14.70;99.90;;;;;;5023832;28;20202;-85
2022/12/31 13:07:29;;;;;;;1.65;0.50;;;14.70;99.90;;;;;;5015134;28;20203;-86
2022/12/31 13:10:21;;;;;;;1.42;0.63;;;14.70;99.90;;;;;;5015402;28;20163;-85
2022/12/31 13:13:15;;;;;;;2.05;0.98;;;14.90;99.90;;;;;;5030286;28;20501;-84
2022/12/31 13:16:11;;;;;;;2.15;0.80;;;15.00;99.90;;;;;;5030573;28;20171;-83
2022/12/31 13:19:15;;;;;;;1.25;0.70;;;15.10;99.90;;;;;;5015354;28;20177;-83
2022/12/31 13:21:45;;;;;;;2.97;0.90;;;15.10;99.90;;;;;;5029632;28;20209;-84
2022/12/31 13:24:32;;;;;;;2.28;0.90;;;15.10;99.90;;;;;;5029922;28;20178;-85
2022/12/31 13:27:28;;;;;;;1.55;0.60;;;15.10;99.90;;;;;;5030097;28;20210;-83
2022/12/31 13:29:59;;;;;;;1.05;0.40;;;15.20;99.90;;;;;;5030215;28;20179;-85
2022/12/31 13:32:40;;;;;;;2.00;0.70;;;15.20;99.90;;;;;;5013774;28;20263;-84
2022/12/31 13:35:36;;;;;;;1.40;0.60;;;15.20;99.90;;;;;;5014718;28;20231;-87
2022/12/31 13:38:22;;;;;;;3.85;0.60;;;15.20;99.90;;;;;;5013642;28;20520;-83